Time;durP1;ratioP1;P1;durP2;ratioP2;P2;SDS_P1;SDS_P2;PMS_P1;PMS_P2;Temp;Humidity;BMP_temperature;BMP_pressure;BME280_temperature;BME280_humidity;BME280_pressure;Samples;Min_cycle;Max_cycle;Signal;HPM_P1;HPM_P2
2022/07/09 00:00:36;;;;;;;0.60;0.60;;;23.60;70.80;;;;;;5133820;28;20381;-75
2022/07/09 00:03:02;;;;;;;0.70;0.70;;;23.50;71.30;;;;;;5133536;28;20478;-76
2022/07/09 00:05:28;;;;;;;0.70;0.70;;;23.50;71.40;;;;;;5133855;28;20053;-76
2022/07/09 00:07:54;;;;;;;0.55;0.55;;;23.50;71.60;;;;;;5133854;28;20046;-75
2022/07/09 00:10:19;;;;;;;0.68;0.68;;;23.50;71.60;;;;;;5133726;28;20023;-75
2022/07/09 00:12:45;;;;;;;1.23;0.98;;;23.40;71.80;;;;;;5133465;28;20016;-76
2022/07/09 00:15:12;;;;;;;0.65;0.55;;;23.40;72.20;;;;;;5133568;28;20072;-75
2022/07/09 00:17:38;;;;;;;1.27;0.52;;;23.40;72.70;;;;;;5135180;27;20427;-75
2022/07/09 00:20:05;;;;;;;1.67;0.63;;;23.40;72.70;;;;;;5119357;27;20168;-75
2022/07/09 00:22:33;;;;;;;0.60;0.60;;;23.30;73.30;;;;;;5137873;27;20026;-75
2022/07/09 00:24:59;;;;;;;0.60;0.60;;;23.20;73.60;;;;;;5137597;27;20084;-75
2022/07/09 00:27:25;;;;;;;0.60;0.60;;;23.20;73.60;;;;;;5137887;27;20011;-75
2022/07/09 00:29:51;;;;;;;0.60;0.60;;;23.10;74.30;;;;;;5118383;27;20602;-75
2022/07/09 00:32:18;;;;;;;0.80;0.80;;;23.20;74.50;;;;;;5136412;27;20021;-75
2022/07/09 00:34:43;;;;;;;0.90;0.70;;;23.00;75.00;;;;;;5136618;27;20019;-75
2022/07/09 00:37:09;;;;;;;0.70;0.70;;;23.00;75.90;;;;;;5118080;27;20027;-75
2022/07/09 00:39:35;;;;;;;0.55;0.55;;;23.10;76.00;;;;;;5136553;27;20019;-76
2022/07/09 00:42:04;;;;;;;0.52;0.52;;;23.10;75.70;;;;;;5136206;27;20051;-76
2022/07/09 00:44:30;;;;;;;1.20;0.65;;;23.00;75.70;;;;;;5136516;27;20096;-76
2022/07/09 00:46:56;;;;;;;2.28;0.60;;;23.00;75.90;;;;;;5137362;27;20364;-75
2022/07/09 00:49:22;;;;;;;0.40;0.40;;;22.90;77.00;;;;;;5118856;27;20058;-75
2022/07/09 00:51:48;;;;;;;0.50;0.50;;;22.80;77.30;;;;;;5137179;27;20019;-76
2022/07/09 00:54:14;;;;;;;0.50;0.50;;;22.90;77.30;;;;;;5137352;27;20030;-75
2022/07/09 00:56:40;;;;;;;0.60;0.60;;;22.90;77.30;;;;;;5137391;27;20100;-76
2022/07/09 00:59:10;;;;;;;0.52;0.52;;;22.80;78.00;;;;;;5118664;27;20114;-75
2022/07/09 01:01:39;;;;;;;0.68;0.40;;;22.80;78.00;;;;;;5137147;27;20106;-76
2022/07/09 01:04:06;;;;;;;0.70;0.70;;;22.80;77.90;;;;;;5137058;27;20019;-76
2022/07/09 01:06:34;;;;;;;0.40;0.40;;;22.90;77.70;;;;;;5118473;27;20111;-75
2022/07/09 01:09:02;;;;;;;2.33;0.80;;;22.90;77.50;;;;;;5137162;27;20015;-76
2022/07/09 01:11:28;;;;;;;0.43;0.43;;;22.90;77.70;;;;;;5136845;27;20438;-75
2022/07/09 01:13:54;;;;;;;0.55;0.55;;;22.90;77.70;;;;;;5136709;27;20023;-75
2022/07/09 01:16:20;;;;;;;1.77;0.63;;;22.90;77.80;;;;;;5118273;27;20019;-76
2022/07/09 01:18:47;;;;;;;0.70;0.70;;;22.90;77.50;;;;;;5136589;27;20027;-75
2022/07/09 01:21:16;;;;;;;1.55;0.60;;;22.90;77.60;;;;;;5136753;27;20015;-76
2022/07/09 01:23:41;;;;;;;0.65;0.65;;;22.90;77.70;;;;;;5137021;27;20026;-75
2022/07/09 01:26:08;;;;;;;0.70;0.70;;;22.90;77.50;;;;;;5136840;27;20120;-76
2022/07/09 01:28:33;;;;;;;0.55;0.55;;;22.90;77.60;;;;;;5135915;27;20023;-74
2022/07/09 01:31:02;;;;;;;0.95;0.75;;;23.00;77.70;;;;;;5136212;27;20030;-75
2022/07/09 01:33:28;;;;;;;1.35;0.73;;;22.90;77.80;;;;;;5136434;27;20027;-75
2022/07/09 01:35:53;;;;;;;0.90;0.68;;;22.90;77.90;;;;;;5118898;27;20024;-75
2022/07/09 01:38:19;;;;;;;0.60;0.60;;;23.00;78.10;;;;;;5097635;28;20027;-75
2022/07/09 01:40:45;;;;;;;0.57;0.57;;;22.90;78.20;;;;;;5115434;28;20070;-76
2022/07/09 01:43:13;;;;;;;0.70;0.70;;;22.90;78.60;;;;;;5117001;27;20031;-76
2022/07/09 01:45:38;;;;;;;0.73;0.73;;;22.80;78.50;;;;;;5136329;27;20020;-75
2022/07/09 01:48:04;;;;;;;0.45;0.45;;;22.80;78.70;;;;;;5136000;27;20458;-76
2022/07/09 01:50:30;;;;;;;0.63;0.63;;;22.80;79.00;;;;;;5136064;27;20533;-76
2022/07/09 01:52:55;;;;;;;0.50;0.50;;;22.80;79.20;;;;;;5136422;27;20019;-75
2022/07/09 01:55:21;;;;;;;0.98;0.80;;;22.80;79.10;;;;;;5136053;27;20050;-74
2022/07/09 01:57:47;;;;;;;0.68;0.68;;;22.80;79.30;;;;;;5136180;27;20023;-75
2022/07/09 02:00:13;;;;;;;0.50;0.50;;;22.80;79.10;;;;;;5135993;27;20027;-76
2022/07/09 02:02:39;;;;;;;1.75;0.60;;;22.80;79.30;;;;;;5135857;27;20027;-75
2022/07/09 02:05:05;;;;;;;0.80;0.80;;;22.70;79.40;;;;;;5135919;27;20034;-75
2022/07/09 02:07:32;;;;;;;0.55;0.55;;;22.70;79.30;;;;;;5135814;27;20046;-75
2022/07/09 02:09:58;;;;;;;1.17;0.60;;;22.80;79.30;;;;;;5135807;27;20025;-75
2022/07/09 02:12:26;;;;;;;1.05;1.00;;;22.70;79.30;;;;;;5117371;27;20110;-76
2022/07/09 02:14:52;;;;;;;0.50;0.50;;;22.70;79.40;;;;;;5135704;27;20019;-76
2022/07/09 02:17:18;;;;;;;1.35;0.63;;;22.70;79.30;;;;;;5117272;27;20034;-75
2022/07/09 02:19:43;;;;;;;0.60;0.60;;;22.70;78.90;;;;;;5135680;27;20061;-76
2022/07/09 02:22:09;;;;;;;0.43;0.43;;;22.80;78.60;;;;;;5135547;27;20068;-77
2022/07/09 02:24:35;;;;;;;0.60;0.60;;;22.80;78.40;;;;;;5135460;27;20114;-75
2022/07/09 02:27:01;;;;;;;0.50;0.50;;;22.80;78.40;;;;;;5135694;27;20028;-76
2022/07/09 02:29:27;;;;;;;0.60;0.60;;;22.80;78.10;;;;;;5116677;27;20023;-75
2022/07/09 02:31:54;;;;;;;1.20;1.08;;;22.80;78.00;;;;;;5116945;27;20023;-75
2022/07/09 02:34:21;;;;;;;4.20;0.60;;;22.80;77.50;;;;;;5118443;27;20505;-77
2022/07/09 02:36:47;;;;;;;0.73;0.73;;;22.80;77.20;;;;;;5129487;27;20026;-76
2022/07/09 02:39:13;;;;;;;0.73;0.60;;;22.80;76.70;;;;;;5135430;27;20023;-75
2022/07/09 02:41:39;;;;;;;0.52;0.52;;;22.70;75.60;;;;;;5109622;27;20141;-75
2022/07/09 02:44:05;;;;;;;1.10;0.70;;;22.60;75.30;;;;;;5107975;27;20080;-76
2022/07/09 02:46:30;;;;;;;0.80;0.80;;;22.60;74.60;;;;;;5132719;27;20551;-76
2022/07/09 02:48:56;;;;;;;0.77;0.77;;;22.50;72.80;;;;;;5118290;27;20038;-75
2022/07/09 02:51:22;;;;;;;0.73;0.73;;;22.60;72.00;;;;;;5134815;27;20098;-76
2022/07/09 02:53:47;;;;;;;0.75;0.60;;;22.50;71.10;;;;;;5116489;27;20033;-75
2022/07/09 02:56:13;;;;;;;0.57;0.57;;;22.60;70.80;;;;;;5134622;27;20571;-75
2022/07/09 02:58:39;;;;;;;2.65;0.80;;;22.50;69.90;;;;;;5134130;27;20031;-75
2022/07/09 03:01:05;;;;;;;0.50;0.50;;;22.60;68.90;;;;;;5114265;28;20041;-75
2022/07/09 03:03:35;;;;;;;1.67;0.57;;;22.60;68.40;;;;;;5129198;27;20391;-76
2022/07/09 03:06:02;;;;;;;1.20;0.82;;;22.60;67.50;;;;;;5134812;27;20454;-76
2022/07/09 03:08:28;;;;;;;0.55;0.55;;;22.60;67.00;;;;;;5134582;27;20064;-75
2022/07/09 03:10:54;;;;;;;0.50;0.50;;;22.50;66.80;;;;;;5134394;27;20027;-76
2022/07/09 03:13:19;;;;;;;0.70;0.70;;;22.60;66.30;;;;;;5115907;27;20110;-75
2022/07/09 03:15:45;;;;;;;0.65;0.65;;;22.50;65.80;;;;;;5133918;27;20522;-75
2022/07/09 03:18:11;;;;;;;0.50;0.50;;;22.50;65.20;;;;;;5134369;27;20076;-76
2022/07/09 03:20:37;;;;;;;0.40;0.40;;;22.50;63.90;;;;;;5134242;27;20027;-75
2022/07/09 03:23:04;;;;;;;0.50;0.50;;;22.50;62.60;;;;;;5134359;27;20026;-75
2022/07/09 03:25:30;;;;;;;0.50;0.50;;;22.50;62.10;;;;;;5115894;27;20027;-75
2022/07/09 03:27:56;;;;;;;0.63;0.63;;;22.40;61.30;;;;;;5122624;27;20068;-75
2022/07/09 03:30:23;;;;;;;0.60;0.60;;;22.40;62.00;;;;;;5116879;27;20106;-75
2022/07/09 03:32:49;;;;;;;0.45;0.40;;;22.30;63.20;;;;;;5114389;27;20025;-76
2022/07/09 03:35:15;;;;;;;2.67;0.50;;;22.10;63.30;;;;;;5133956;27;20030;-75
2022/07/09 03:37:41;;;;;;;0.63;0.63;;;22.20;63.70;;;;;;5133631;27;20031;-76
2022/07/09 03:40:07;;;;;;;1.73;0.80;;;22.20;65.10;;;;;;5130368;27;20030;-75
2022/07/09 03:42:41;;;;;;;2.33;2.13;;;22.10;63.90;;;;;;5122164;27;20074;-76
2022/07/09 03:45:07;;;;;;;1.48;0.60;;;22.20;69.00;;;;;;5115597;27;20030;-76
2022/07/09 03:47:32;;;;;;;1.48;1.05;;;22.30;65.40;;;;;;5127865;27;20389;-76
2022/07/09 03:49:58;;;;;;;1.08;0.70;;;22.30;63.20;;;;;;5124573;27;20023;-74
2022/07/09 03:52:24;;;;;;;0.70;0.60;;;22.30;62.60;;;;;;5117797;27;20018;-75
2022/07/09 03:54:49;;;;;;;0.50;0.50;;;22.40;62.30;;;;;;5133681;27;20031;-75
2022/07/09 03:57:15;;;;;;;1.73;0.47;;;22.30;61.30;;;;;;5124854;27;20440;-74
2022/07/09 03:59:41;;;;;;;1.45;0.88;;;22.20;60.70;;;;;;5113361;28;20028;-74
2022/07/09 04:02:07;;;;;;;0.68;0.50;;;22.20;61.50;;;;;;5094928;28;20383;-75
2022/07/09 04:04:33;;;;;;;0.68;0.68;;;22.10;60.80;;;;;;5094713;28;20019;-75
2022/07/09 04:06:59;;;;;;;1.35;0.60;;;22.20;61.00;;;;;;5113326;28;20032;-76
2022/07/09 04:09:24;;;;;;;1.92;0.95;;;22.20;61.40;;;;;;5113213;28;20510;-75
2022/07/09 04:11:50;;;;;;;2.85;0.47;;;22.10;62.00;;;;;;5113097;28;20039;-75
2022/07/09 04:14:16;;;;;;;0.90;0.77;;;22.10;62.70;;;;;;5123847;28;20111;-74
2022/07/09 04:16:42;;;;;;;0.80;0.80;;;22.10;61.50;;;;;;5133815;28;20470;-75
2022/07/09 04:19:08;;;;;;;0.73;0.73;;;22.10;60.80;;;;;;5115265;28;20023;-75
2022/07/09 04:21:33;;;;;;;0.75;0.75;;;22.10;61.10;;;;;;5115250;28;20374;-75
2022/07/09 04:23:59;;;;;;;0.73;0.45;;;22.10;62.00;;;;;;5133801;28;20023;-75
2022/07/09 04:26:25;;;;;;;0.60;0.50;;;22.10;62.90;;;;;;5115158;28;20054;-75
2022/07/09 04:28:50;;;;;;;0.60;0.60;;;22.10;59.70;;;;;;5133722;28;20051;-74
2022/07/09 04:31:19;;;;;;;0.88;0.50;;;22.20;59.50;;;;;;5133729;28;20051;-75
2022/07/09 04:33:45;;;;;;;0.60;0.60;;;22.20;59.50;;;;;;5115108;28;20046;-75
2022/07/09 04:36:10;;;;;;;0.40;0.40;;;22.30;59.70;;;;;;5133598;28;20486;-75
2022/07/09 04:38:36;;;;;;;0.55;0.55;;;22.30;60.20;;;;;;5133556;28;20062;-75
2022/07/09 04:41:02;;;;;;;1.23;0.52;;;22.30;58.40;;;;;;5111398;28;20051;-75
2022/07/09 04:43:29;;;;;;;0.52;0.50;;;22.40;57.90;;;;;;5109145;28;20028;-75
2022/07/09 04:45:55;;;;;;;0.82;0.82;;;22.40;58.40;;;;;;5091159;28;20028;-75
2022/07/09 04:48:21;;;;;;;0.47;0.47;;;22.40;58.20;;;;;;5091304;28;20020;-75
2022/07/09 04:50:46;;;;;;;0.55;0.40;;;22.50;58.10;;;;;;5090912;28;20033;-75
2022/07/09 04:53:12;;;;;;;0.45;0.45;;;22.50;58.20;;;;;;5092679;28;20012;-74
2022/07/09 04:55:38;;;;;;;0.90;0.60;;;22.50;58.20;;;;;;5091219;28;20028;-75
2022/07/09 04:58:03;;;;;;;1.38;0.85;;;22.60;58.50;;;;;;5091314;28;20357;-75
2022/07/09 05:00:29;;;;;;;0.93;0.77;;;22.60;58.70;;;;;;5092570;28;20042;-75
2022/07/09 05:02:55;;;;;;;0.40;0.40;;;22.50;58.30;;;;;;5092668;28;20017;-76
2022/07/09 05:05:25;;;;;;;6.63;0.80;;;22.60;58.30;;;;;;5094841;28;20024;-74
2022/07/09 05:07:51;;;;;;;0.95;0.60;;;22.60;58.50;;;;;;5096429;28;20054;-76
2022/07/09 05:10:18;;;;;;;5.75;0.50;;;22.60;57.60;;;;;;5094739;28;20043;-76
2022/07/09 05:12:43;;;;;;;0.40;0.40;;;22.80;57.40;;;;;;5096183;28;20059;-75
2022/07/09 05:15:10;;;;;;;0.68;0.68;;;22.80;57.10;;;;;;5114152;28;20534;-75
2022/07/09 05:17:37;;;;;;;1.88;0.82;;;22.80;57.60;;;;;;5116709;27;20050;-76
2022/07/09 05:20:04;;;;;;;1.20;0.60;;;22.80;58.10;;;;;;5116426;28;20074;-76
2022/07/09 05:22:34;;;;;;;0.65;0.65;;;22.80;57.30;;;;;;5116120;28;20023;-76
2022/07/09 05:25:01;;;;;;;0.40;0.40;;;22.90;57.30;;;;;;5116383;28;20385;-76
2022/07/09 05:27:28;;;;;;;0.40;0.40;;;23.00;57.00;;;;;;5114809;28;20387;-76
2022/07/09 05:29:54;;;;;;;1.38;0.80;;;23.10;56.90;;;;;;5115017;28;20023;-77
2022/07/09 05:32:19;;;;;;;0.75;0.60;;;23.10;57.00;;;;;;5099562;27;20046;-76
2022/07/09 05:34:46;;;;;;;4.43;1.10;;;23.10;57.00;;;;;;5094438;28;20020;-76
2022/07/09 05:37:12;;;;;;;0.68;0.68;;;23.20;56.70;;;;;;5095634;28;20093;-76
2022/07/09 05:39:38;;;;;;;0.57;0.55;;;23.20;56.70;;;;;;5095584;28;20112;-76
2022/07/09 05:42:04;;;;;;;0.85;0.50;;;23.20;57.00;;;;;;5123472;27;20469;-77
2022/07/09 05:44:30;;;;;;;1.10;0.90;;;23.30;57.00;;;;;;5136314;27;20019;-76
2022/07/09 05:46:56;;;;;;;0.60;0.50;;;23.40;57.90;;;;;;5136154;27;20375;-76
2022/07/09 05:49:25;;;;;;;0.57;0.50;;;23.40;58.40;;;;;;5136441;27;20416;-76
2022/07/09 05:51:51;;;;;;;0.63;0.60;;;23.40;59.00;;;;;;5136120;27;20027;-76
2022/07/09 05:54:17;;;;;;;2.88;0.50;;;23.50;58.70;;;;;;5136151;27;20015;-77
2022/07/09 05:56:43;;;;;;;0.50;0.50;;;23.60;60.00;;;;;;5136120;27;20532;-76
2022/07/09 05:59:09;;;;;;;0.52;0.50;;;23.60;59.40;;;;;;5136373;27;20209;-76
2022/07/09 06:01:42;;;;;;;1.30;0.60;;;23.60;57.00;;;;;;5135636;27;20034;-76
2022/07/09 06:04:09;;;;;;;1.02;0.77;;;23.60;56.20;;;;;;5135750;27;20496;-76
2022/07/09 06:06:34;;;;;;;3.40;0.50;;;23.70;56.30;;;;;;5135584;27;20543;-77
2022/07/09 06:09:00;;;;;;;1.52;0.65;;;23.80;55.50;;;;;;5117014;27;20027;-76
2022/07/09 06:11:26;;;;;;;2.92;0.70;;;23.90;55.90;;;;;;5116946;27;20416;-76
2022/07/09 06:13:52;;;;;;;0.65;0.47;;;24.00;55.80;;;;;;5135408;27;20027;-76
2022/07/09 06:16:18;;;;;;;1.35;0.77;;;24.10;56.00;;;;;;5116601;27;20117;-76
2022/07/09 06:18:44;;;;;;;1.17;0.60;;;24.20;56.10;;;;;;5135511;27;20058;-76
2022/07/09 06:21:09;;;;;;;0.65;0.50;;;24.30;57.70;;;;;;5117380;27;20108;-76
2022/07/09 06:23:35;;;;;;;0.50;0.50;;;24.30;58.20;;;;;;5135779;27;20027;-76
2022/07/09 06:26:01;;;;;;;0.50;0.50;;;24.40;59.00;;;;;;5135393;27;20019;-76
2022/07/09 06:28:26;;;;;;;1.50;0.70;;;24.50;59.80;;;;;;5134964;27;20390;-76
2022/07/09 06:30:52;;;;;;;2.92;1.08;;;24.60;60.10;;;;;;5134617;27;20444;-76
2022/07/09 06:33:18;;;;;;;1.00;0.85;;;24.60;60.90;;;;;;5134560;27;20030;-76
2022/07/09 06:35:44;;;;;;;8.00;0.90;;;24.60;62.60;;;;;;5134423;27;20110;-77
2022/07/09 06:38:09;;;;;;;3.67;0.95;;;24.70;63.40;;;;;;5134742;27;20053;-76
2022/07/09 06:40:35;;;;;;;0.70;0.70;;;24.70;64.10;;;;;;5134044;27;20050;-76
2022/07/09 06:43:01;;;;;;;10.23;1.13;;;24.70;63.20;;;;;;5116016;27;20390;-76
2022/07/09 06:45:26;;;;;;;1.48;0.52;;;24.80;63.90;;;;;;5134931;27;20019;-76
2022/07/09 06:47:52;;;;;;;6.93;0.50;;;24.90;64.00;;;;;;5135055;27;20024;-76
2022/07/09 06:50:19;;;;;;;0.60;0.60;;;24.90;63.30;;;;;;5134956;27;20020;-76
2022/07/09 06:52:44;;;;;;;5.95;0.85;;;24.90;63.10;;;;;;5116591;27;20058;-76
2022/07/09 06:55:10;;;;;;;1.67;0.60;;;25.00;63.80;;;;;;5134856;27;20080;-76
2022/07/09 06:57:36;;;;;;;1.27;0.50;;;25.00;64.80;;;;;;5116533;27;20031;-77
2022/07/09 07:00:04;;;;;;;0.55;0.55;;;25.10;65.40;;;;;;5134829;27;20055;-76
2022/07/09 07:02:30;;;;;;;0.65;0.50;;;25.30;66.40;;;;;;5134768;27;20031;-76
2022/07/09 07:04:56;;;;;;;0.40;0.40;;;25.30;65.70;;;;;;5134571;27;20023;-76
2022/07/09 07:07:22;;;;;;;1.70;0.50;;;25.30;64.40;;;;;;5116262;27;20072;-76
2022/07/09 07:09:47;;;;;;;0.63;0.55;;;25.40;65.30;;;;;;5134579;27;20068;-76
2022/07/09 07:12:13;;;;;;;0.50;0.40;;;25.50;63.70;;;;;;5134452;27;20037;-75
2022/07/09 07:14:39;;;;;;;1.65;0.30;;;25.40;62.50;;;;;;5134703;27;20019;-76
2022/07/09 07:17:07;;;;;;;3.50;0.50;;;25.50;63.10;;;;;;5134512;27;20069;-77
2022/07/09 07:19:33;;;;;;;3.20;1.20;;;25.50;64.30;;;;;;5134615;27;20031;-76
2022/07/09 07:21:59;;;;;;;0.88;0.47;;;25.60;65.00;;;;;;5134244;27;20055;-76
2022/07/09 07:24:25;;;;;;;0.50;0.50;;;25.60;63.20;;;;;;5134071;27;20015;-76
2022/07/09 07:26:51;;;;;;;0.65;0.57;;;25.60;65.30;;;;;;5133368;27;20426;-75
2022/07/09 07:29:20;;;;;;;0.40;0.40;;;25.70;63.80;;;;;;5134256;27;20395;-75
2022/07/09 07:31:46;;;;;;;1.23;0.70;;;25.70;63.40;;;;;;5110163;28;20023;-76
2022/07/09 07:34:11;;;;;;;0.40;0.40;;;25.70;64.60;;;;;;5113905;28;20106;-75
2022/07/09 07:36:37;;;;;;;0.50;0.50;;;25.80;64.00;;;;;;5095174;28;20031;-76
2022/07/09 07:39:03;;;;;;;0.50;0.50;;;25.80;64.50;;;;;;5113535;28;20027;-75
2022/07/09 07:41:29;;;;;;;2.80;0.60;;;25.80;63.80;;;;;;5113289;28;20057;-75
2022/07/09 07:43:54;;;;;;;1.02;0.40;;;25.90;65.70;;;;;;5121169;27;20052;-76
2022/07/09 07:46:20;;;;;;;0.40;0.40;;;26.00;66.70;;;;;;5134037;27;20481;-75
2022/07/09 07:48:46;;;;;;;0.60;0.60;;;25.90;64.20;;;;;;5134148;27;20027;-75
2022/07/09 07:51:12;;;;;;;0.50;0.50;;;25.90;64.20;;;;;;5133956;27;20068;-75
2022/07/09 07:53:38;;;;;;;2.60;0.40;;;26.00;64.90;;;;;;5133931;27;20446;-75
2022/07/09 07:56:04;;;;;;;2.17;0.65;;;25.90;64.70;;;;;;5133948;27;20096;-75
2022/07/09 07:58:32;;;;;;;2.05;0.50;;;25.90;64.20;;;;;;5134079;27;20057;-75
2022/07/09 08:00:58;;;;;;;0.60;0.60;;;25.90;65.10;;;;;;5133776;28;20026;-76
2022/07/09 08:03:24;;;;;;;0.50;0.50;;;26.00;65.80;;;;;;5134003;28;20027;-75
2022/07/09 08:05:50;;;;;;;3.30;0.50;;;26.00;65.00;;;;;;5133969;28;20111;-76
2022/07/09 08:08:18;;;;;;;0.47;0.45;;;26.00;63.70;;;;;;5133679;28;20019;-75
2022/07/09 08:10:45;;;;;;;2.22;0.50;;;25.90;64.40;;;;;;5133605;28;20019;-76
2022/07/09 08:13:16;;;;;;;0.57;0.52;;;26.00;64.60;;;;;;5132505;28;20110;-75
2022/07/09 08:15:43;;;;;;;0.82;0.50;;;26.20;65.50;;;;;;5113186;28;20111;-75
2022/07/09 08:18:12;;;;;;;0.73;0.50;;;26.30;65.10;;;;;;5113316;28;20035;-76
2022/07/09 08:20:41;;;;;;;3.20;0.65;;;26.30;63.70;;;;;;5113045;28;20102;-74
2022/07/09 08:23:08;;;;;;;1.95;0.68;;;26.40;64.40;;;;;;5113054;28;20095;-75
2022/07/09 08:25:34;;;;;;;3.70;0.60;;;26.40;63.50;;;;;;5113206;28;20023;-75
2022/07/09 08:28:00;;;;;;;0.90;0.45;;;26.40;62.90;;;;;;5112967;28;20074;-75
2022/07/09 08:30:26;;;;;;;1.08;0.75;;;26.40;64.50;;;;;;5113196;28;20483;-75
2022/07/09 08:32:52;;;;;;;1.30;0.60;;;26.50;64.70;;;;;;5112748;28;20015;-75
2022/07/09 08:35:20;;;;;;;0.68;0.40;;;26.50;64.20;;;;;;5112841;28;20032;-75
2022/07/09 08:37:49;;;;;;;0.93;0.55;;;26.50;64.70;;;;;;5113070;28;20035;-75
2022/07/09 08:40:15;;;;;;;0.50;0.50;;;26.40;64.50;;;;;;5116853;28;20477;-75
2022/07/09 08:42:42;;;;;;;0.57;0.57;;;26.30;64.00;;;;;;5116953;28;20126;-76
2022/07/09 08:45:12;;;;;;;3.13;0.60;;;26.30;64.70;;;;;;5134835;27;20019;-75
2022/07/09 08:47:40;;;;;;;0.70;0.70;;;26.20;65.10;;;;;;5137429;27;20027;-75
2022/07/09 08:50:06;;;;;;;1.13;0.70;;;26.30;66.20;;;;;;5137350;27;20046;-76
2022/07/09 08:52:33;;;;;;;0.70;0.70;;;26.40;66.30;;;;;;5118778;27;20044;-75
2022/07/09 08:54:59;;;;;;;1.52;0.60;;;26.50;66.60;;;;;;5137118;27;20124;-75
2022/07/09 08:57:28;;;;;;;1.65;0.70;;;26.60;65.50;;;;;;5137393;27;20106;-75
2022/07/09 08:59:53;;;;;;;1.85;0.70;;;26.60;65.80;;;;;;5137209;27;20011;-75
2022/07/09 09:02:20;;;;;;;0.50;0.50;;;26.60;63.80;;;;;;5137061;27;20103;-75
2022/07/09 09:04:46;;;;;;;0.63;0.60;;;26.60;65.20;;;;;;5136834;27;20019;-75
2022/07/09 09:07:23;;;;;;;1.00;0.70;;;26.60;65.30;;;;;;5136984;27;20020;-75
2022/07/09 09:09:49;;;;;;;0.73;0.52;;;26.50;65.70;;;;;;5136866;27;20023;-75
2022/07/09 09:12:15;;;;;;;0.55;0.55;;;26.50;65.20;;;;;;5125138;27;20020;-75
2022/07/09 09:14:49;;;;;;;3.30;0.93;;;26.60;65.90;;;;;;5133862;27;20011;-75
2022/07/09 09:17:15;;;;;;;0.68;0.68;;;26.70;65.60;;;;;;5110536;27;20034;-75
2022/07/09 09:19:41;;;;;;;1.00;0.50;;;26.80;65.90;;;;;;5119614;27;20020;-75
2022/07/09 09:22:09;;;;;;;1.00;0.70;;;26.90;65.10;;;;;;5119800;27;20061;-76
2022/07/09 09:24:34;;;;;;;0.80;0.80;;;27.00;64.60;;;;;;5097584;28;20123;-77
2022/07/09 09:27:01;;;;;;;0.68;0.68;;;26.90;62.80;;;;;;5108443;28;20122;-76
2022/07/09 09:29:28;;;;;;;0.88;0.88;;;27.00;64.10;;;;;;5119220;27;20027;-76
2022/07/09 09:31:54;;;;;;;1.42;0.50;;;27.10;65.30;;;;;;5115720;27;20484;-76
2022/07/09 09:34:21;;;;;;;3.05;0.60;;;27.10;64.90;;;;;;5113178;28;20011;-76
2022/07/09 09:36:51;;;;;;;0.70;0.70;;;27.10;65.30;;;;;;5112909;27;20031;-76
2022/07/09 09:39:28;;;;;;;0.55;0.55;;;27.30;66.20;;;;;;5094650;28;20036;-76
2022/07/09 09:41:56;;;;;;;2.83;0.80;;;27.30;65.60;;;;;;5094506;28;20135;-75
2022/07/09 09:44:28;;;;;;;0.88;0.88;;;27.40;66.20;;;;;;5119316;27;20020;-75
2022/07/09 09:46:56;;;;;;;1.88;0.68;;;27.40;65.20;;;;;;5113073;28;20024;-76
2022/07/09 09:49:22;;;;;;;2.05;0.98;;;27.40;63.70;;;;;;5112837;28;20044;-76
2022/07/09 09:52:00;;;;;;;1.00;0.90;;;27.50;64.50;;;;;;5111693;28;20020;-76
2022/07/09 09:54:26;;;;;;;1.00;1.00;;;27.50;64.20;;;;;;5094301;28;20434;-76
2022/07/09 09:56:53;;;;;;;5.25;1.20;;;27.60;64.20;;;;;;5112702;28;20058;-76
2022/07/09 09:59:19;;;;;;;1.48;1.17;;;27.60;61.90;;;;;;5112459;28;20177;-75
2022/07/09 10:01:46;;;;;;;1.48;1.10;;;27.60;62.90;;;;;;5112505;28;20035;-76
2022/07/09 10:04:14;;;;;;;2.38;1.00;;;27.80;63.60;;;;;;5112876;28;20024;-76
2022/07/09 10:06:41;;;;;;;1.40;1.30;;;27.90;63.30;;;;;;5093987;28;20518;-76
2022/07/09 10:09:11;;;;;;;2.20;1.50;;;27.80;63.00;;;;;;5112076;28;20023;-75
2022/07/09 10:11:45;;;;;;;1.65;1.55;;;28.00;64.40;;;;;;5094403;28;20480;-75
2022/07/09 10:14:23;;;;;;;5.32;1.70;;;28.20;63.70;;;;;;5122483;27;20028;-76
2022/07/09 10:16:51;;;;;;;1.65;1.55;;;28.30;63.00;;;;;;5133375;27;20023;-76
2022/07/09 10:19:33;;;;;;;1.48;1.40;;;28.20;60.90;;;;;;5132727;27;20697;-76
2022/07/09 10:22:00;;;;;;;1.88;1.77;;;28.20;60.70;;;;;;5113908;27;20038;-75
2022/07/09 10:24:30;;;;;;;1.75;1.65;;;28.00;59.10;;;;;;5132384;27;20026;-76
2022/07/09 10:27:05;;;;;;;1.95;1.60;;;28.10;60.30;;;;;;5132203;27;20023;-76
2022/07/09 10:29:31;;;;;;;2.10;2.00;;;28.40;61.80;;;;;;5133192;27;20026;-75
2022/07/09 10:31:57;;;;;;;1.58;1.48;;;28.50;62.00;;;;;;5113919;27;20031;-76
2022/07/09 10:34:41;;;;;;;3.42;2.05;;;28.50;60.50;;;;;;5132208;27;20027;-76
2022/07/09 10:37:07;;;;;;;3.50;2.03;;;28.40;60.40;;;;;;5132252;27;20394;-76
2022/07/09 10:39:33;;;;;;;3.80;1.90;;;28.30;59.70;;;;;;5132610;27;20019;-76
2022/07/09 10:42:25;;;;;;;1.63;1.52;;;28.20;60.00;;;;;;5132022;27;20054;-77
2022/07/09 10:44:51;;;;;;;4.30;1.40;;;28.40;61.00;;;;;;5112048;27;20401;-76
2022/07/09 10:47:17;;;;;;;1.95;1.77;;;28.50;59.90;;;;;;5132572;27;20027;-77
2022/07/09 10:49:43;;;;;;;1.10;1.00;;;28.70;61.50;;;;;;5132114;27;20023;-77
2022/07/09 10:52:09;;;;;;;2.50;1.77;;;28.80;59.60;;;;;;5132803;27;20019;-77
2022/07/09 10:54:48;;;;;;;2.88;1.30;;;28.90;59.70;;;;;;5132210;27;20034;-76
2022/07/09 10:57:14;;;;;;;2.08;1.40;;;28.80;58.60;;;;;;5132238;27;20031;-76
2022/07/09 10:59:46;;;;;;;1.23;1.17;;;28.90;59.10;;;;;;5131954;27;20094;-76
2022/07/09 11:02:22;;;;;;;2.15;1.52;;;28.90;60.20;;;;;;5131401;27;20064;-77
2022/07/09 11:04:50;;;;;;;1.52;1.40;;;28.90;59.60;;;;;;5132624;27;20566;-76
2022/07/09 11:07:23;;;;;;;1.33;1.23;;;28.90;59.40;;;;;;5131914;27;20030;-76
2022/07/09 11:09:51;;;;;;;1.40;1.30;;;28.70;59.90;;;;;;5131867;27;20023;-76
2022/07/09 11:12:18;;;;;;;1.88;1.55;;;28.60;58.40;;;;;;5113517;27;20043;-76
2022/07/09 11:14:47;;;;;;;2.78;1.50;;;28.80;58.70;;;;;;5128726;27;20023;-77
2022/07/09 11:17:17;;;;;;;1.15;1.10;;;29.10;59.40;;;;;;5112343;27;20420;-76
2022/07/09 11:19:44;;;;;;;1.08;1.05;;;29.40;59.10;;;;;;5112080;27;20387;-75
2022/07/09 11:22:09;;;;;;;4.80;1.38;;;29.60;59.50;;;;;;5111529;28;20028;-76
2022/07/09 11:24:35;;;;;;;1.10;1.10;;;29.90;59.50;;;;;;5092466;28;20386;-76
2022/07/09 11:27:03;;;;;;;1.42;1.00;;;30.00;58.90;;;;;;5115597;27;20541;-77
2022/07/09 11:29:29;;;;;;;3.15;0.98;;;29.90;57.10;;;;;;5131703;27;20023;-76
2022/07/09 11:31:55;;;;;;;1.58;1.10;;;29.80;56.70;;;;;;5129342;27;20023;-76
2022/07/09 11:34:20;;;;;;;2.63;1.10;;;29.80;57.20;;;;;;5131836;27;20016;-76
2022/07/09 11:36:53;;;;;;;2.25;1.00;;;30.10;57.00;;;;;;5131410;27;20084;-76
2022/07/09 11:39:30;;;;;;;1.00;1.00;;;30.30;57.40;;;;;;5123858;27;20080;-76
2022/07/09 11:41:58;;;;;;;1.13;0.90;;;30.30;54.60;;;;;;5116951;27;20054;-75
2022/07/09 11:44:25;;;;;;;1.30;0.95;;;30.40;55.80;;;;;;5128515;27;20106;-76
2022/07/09 11:47:00;;;;;;;1.30;0.73;;;30.20;54.80;;;;;;5121171;27;20031;-77
2022/07/09 11:49:33;;;;;;;1.85;0.93;;;30.40;55.60;;;;;;5114294;27;20024;-77
2022/07/09 11:51:59;;;;;;;2.30;0.82;;;30.50;54.90;;;;;;5112541;27;20019;-76
2022/07/09 11:54:29;;;;;;;2.47;1.00;;;30.60;54.50;;;;;;5125909;27;20096;-77
2022/07/09 11:56:55;;;;;;;0.90;0.88;;;30.50;53.80;;;;;;5101189;27;20027;-76
2022/07/09 11:59:31;;;;;;;0.80;0.70;;;30.10;54.10;;;;;;5122856;27;20038;-76
2022/07/09 12:01:58;;;;;;;0.85;0.85;;;30.00;54.60;;;;;;5110026;28;20077;-77
2022/07/09 12:04:24;;;;;;;1.65;1.05;;;30.10;54.00;;;;;;5110610;28;20031;-77
2022/07/09 12:06:50;;;;;;;2.92;1.02;;;30.30;55.30;;;;;;5112104;28;20395;-76
2022/07/09 12:09:28;;;;;;;2.03;0.90;;;30.40;53.60;;;;;;5102499;28;20501;-75
2022/07/09 12:11:54;;;;;;;0.88;0.70;;;30.70;55.00;;;;;;5125820;28;20383;-76
2022/07/09 12:14:22;;;;;;;5.90;1.13;;;30.60;54.00;;;;;;5125463;27;20019;-75
2022/07/09 12:16:48;;;;;;;0.60;0.60;;;30.40;53.90;;;;;;5131585;27;20030;-77
2022/07/09 12:19:14;;;;;;;1.48;0.60;;;30.50;54.70;;;;;;5120931;27;20521;-76
2022/07/09 12:21:39;;;;;;;2.20;1.00;;;30.30;54.00;;;;;;5117025;27;20073;-76
2022/07/09 12:24:05;;;;;;;0.75;0.75;;;30.20;54.30;;;;;;5135003;27;20027;-76
2022/07/09 12:26:32;;;;;;;1.85;0.68;;;30.20;54.20;;;;;;5134645;27;20023;-76
2022/07/09 12:28:58;;;;;;;1.00;0.80;;;30.00;53.30;;;;;;5134486;27;20482;-76
2022/07/09 12:31:24;;;;;;;0.70;0.70;;;30.10;53.50;;;;;;5115706;27;20037;-75
2022/07/09 12:33:49;;;;;;;0.80;0.80;;;30.10;53.00;;;;;;5116234;27;20096;-76
2022/07/09 12:36:16;;;;;;;1.27;0.77;;;29.90;53.10;;;;;;5134334;27;20111;-75
2022/07/09 12:38:42;;;;;;;0.60;0.60;;;29.80;53.80;;;;;;5115739;27;20031;-76
2022/07/09 12:41:08;;;;;;;1.50;0.80;;;29.80;54.10;;;;;;5134884;27;20051;-75
2022/07/09 12:43:34;;;;;;;0.70;0.70;;;30.00;54.30;;;;;;5134320;27;20030;-76
2022/07/09 12:45:59;;;;;;;2.30;0.80;;;30.30;54.70;;;;;;5134466;27;20492;-75